Aviation Digital Data Service (ADDS)

Output produced by METARs form (0011 UTC 23 March 2019)
found at http://www.aviationweather.gov/metar/data/
 
Forecast for: ZBTJ (TIANJIN/ZHANGGUI, CN)
Text: TAF ZBTJ 221927Z 2300/2324 34006MPS 5000 HZ NSC TX11/2306Z TN03/2300Z
Forecast period: 0000 to 0700 UTC 23 March 2019
Forecast type: FROM: standard forecast or significant change
Winds: from the NNW (340 degrees) at 14 MPH (12 knots; 6.2 m/s)
Visibility: 3 miles (5 km)
Ceiling: unknown
Clouds: missing
Weather: HZ  (haze)
Text: BECMG 2307/2308 24004MPS
Forecast period: 0700 UTC 23 March 2019 to 0000 UTC 24 March 2019
Forecast type: BECOMING: Conditions expected to become as follows by 0800 UTC 23 March 2019
Winds: from the WSW (240 degrees) at 9 MPH (8 knots; 4.1 m/s)
Visibility: 3 miles (5 km)
Ceiling: unknown
Clouds: missing
Weather: HZ  (haze)